Heaters, West Virginia
Current Conditions -  °F | °C
As of 9:55 AM on Friday 28 Nov 2014 (Local Time) from KW22 Reporting Station
Broken Clouds Broken Clouds  
Wind Chill: 15°   Ceiling: 1700
Heat Index: 25°   Visibility: 10mi
Dew Point: 18°   Wind: 9mph
Humidity: 74%   Direction: 260°W
Pressure: 30.32"   Gusts: NA
Location:  38.76°N, 80.64°W
Report Text: KW22 281455Z AUTO 26008KT 10SM BKN017 M04/M08 A3032 RMK AO2
Loading
Personal Weather Stations






























Interactive Weather Map New forecast layout! Learn more

10-Day Weather Forecast

Advertisements
Track Severe Weather on mobile